Time;durP1;ratioP1;P1;durP2;ratioP2;P2;SDS_P1;SDS_P2;PMS_P1;PMS_P2;Temp;Humidity;BMP_temperature;BMP_pressure;BME280_temperature;BME280_humidity;BME280_pressure;Samples;Min_cycle;Max_cycle;Signal;HPM_P1;HPM_P2
2023/07/11 00:00:03;;;;;;;4.30;2.77;;;;;;;;;;5051817;28;20208;-50
2023/07/11 00:02:30;;;;;;;4.47;2.67;;;;;;;;;;5051643;28;20201;-50
2023/07/11 00:04:57;;;;;;;3.67;2.53;;;;;;;;;;5051805;28;20696;-50
2023/07/11 00:07:23;;;;;;;3.43;2.53;;;;;;;;;;5051736;28;20206;-49
2023/07/11 00:09:49;;;;;;;4.53;2.93;;;;;;;;;;5051868;28;20237;-50
2023/07/11 00:12:15;;;;;;;6.03;2.57;;;;;;;;;;5051570;28;20207;-50
2023/07/11 00:14:41;;;;;;;3.27;2.80;;;;;;;;;;5067291;28;20206;-50
2023/07/11 00:17:07;;;;;;;3.87;2.60;;;;;;;;;;5071425;28;20212;-51
2023/07/11 00:19:46;;;;;;;3.73;2.57;;;;;;;;;;5071516;28;20242;-51
2023/07/11 00:22:12;;;;;;;3.90;2.90;;;;;;;;;;5067779;28;20212;-52
2023/07/11 00:24:38;;;;;;;4.53;2.40;;;;;;;;;;5071659;28;20206;-53
2023/07/11 00:27:04;;;;;;;4.60;2.60;;;;;;;;;;5071489;28;20285;-53
2023/07/11 00:29:30;;;;;;;3.73;2.50;;;;;;;;;;5071436;28;20673;-53
2023/07/11 00:31:56;;;;;;;3.23;2.67;;;;;;;;;;5071398;28;20568;-54
2023/07/11 00:34:22;;;;;;;4.27;3.00;;;;;;;;;;5071393;28;20203;-55
2023/07/11 00:36:49;;;;;;;3.73;2.50;;;;;;;;;;5071227;28;20285;-55
2023/07/11 00:39:16;;;;;;;2.90;2.53;;;;;;;;;;5070887;28;20592;-55
2023/07/11 00:41:42;;;;;;;3.57;2.50;;;;;;;;;;5070991;28;20694;-55
2023/07/11 00:44:11;;;;;;;3.60;2.37;;;;;;;;;;5070829;28;20356;-56
2023/07/11 00:46:37;;;;;;;4.73;2.70;;;;;;;;;;5071047;28;20263;-55
2023/07/11 00:49:03;;;;;;;5.37;2.93;;;;;;;;;;5071202;28;20199;-55
2023/07/11 00:51:31;;;;;;;4.53;2.80;;;;;;;;;;5071019;28;20741;-55
2023/07/11 00:53:59;;;;;;;3.10;2.60;;;;;;;;;;5071034;28;20203;-54
2023/07/11 00:56:26;;;;;;;5.93;2.77;;;;;;;;;;5070905;28;20206;-54
2023/07/11 00:58:53;;;;;;;4.37;2.57;;;;;;;;;;5070804;28;20231;-54
2023/07/11 01:01:19;;;;;;;4.73;2.80;;;;;;;;;;5070770;28;20782;-54
2023/07/11 01:03:45;;;;;;;4.30;2.80;;;;;;;;;;5070473;28;20200;-54
2023/07/11 01:06:12;;;;;;;3.30;2.53;;;;;;;;;;5070786;28;20592;-56
2023/07/11 01:08:38;;;;;;;3.07;2.43;;;;;;;;;;5070795;28;20243;-54
2023/07/11 01:11:05;;;;;;;10.53;2.47;;;;;;;;;;5070729;28;20243;-54
2023/07/11 01:13:31;;;;;;;3.93;2.87;;;;;;;;;;5070633;28;20676;-54
2023/07/11 01:15:57;;;;;;;3.07;2.57;;;;;;;;;;5070711;28;20195;-55
2023/07/11 01:18:23;;;;;;;3.73;2.70;;;;;;;;;;5070688;28;20229;-55
2023/07/11 01:20:49;;;;;;;4.80;2.83;;;;;;;;;;5070713;28;20220;-55
2023/07/11 01:23:17;;;;;;;7.73;3.07;;;;;;;;;;5070523;28;20203;-54
2023/07/11 01:25:43;;;;;;;4.50;2.70;;;;;;;;;;5070663;28;20197;-56
2023/07/11 01:28:13;;;;;;;3.87;2.80;;;;;;;;;;5070489;28;20745;-55
2023/07/11 01:30:39;;;;;;;4.93;2.83;;;;;;;;;;5070496;28;20778;-55
2023/07/11 01:33:05;;;;;;;3.83;2.53;;;;;;;;;;5070702;28;20197;-54
2023/07/11 01:35:31;;;;;;;3.13;2.87;;;;;;;;;;5070549;28;20559;-54
2023/07/11 01:37:57;;;;;;;4.23;2.60;;;;;;;;;;5070409;28;20226;-54
2023/07/11 01:40:25;;;;;;;3.67;2.53;;;;;;;;;;5070568;28;20208;-55
2023/07/11 01:42:51;;;;;;;3.47;2.57;;;;;;;;;;5070296;28;20242;-55
2023/07/11 01:45:17;;;;;;;4.93;2.50;;;;;;;;;;5070348;28;20212;-56
2023/07/11 01:47:43;;;;;;;3.40;2.80;;;;;;;;;;5070554;28;20208;-55
2023/07/11 01:50:10;;;;;;;6.40;2.90;;;;;;;;;;5070423;28;20194;-55
2023/07/11 01:52:37;;;;;;;4.83;2.90;;;;;;;;;;5070377;28;20189;-56
2023/07/11 01:55:03;;;;;;;3.40;2.60;;;;;;;;;;5070280;28;20545;-56
2023/07/11 01:57:30;;;;;;;3.03;2.47;;;;;;;;;;5070388;28;20205;-55
2023/07/11 01:59:56;;;;;;;3.30;2.80;;;;;;;;;;5070267;28;20201;-55
2023/07/11 02:02:22;;;;;;;3.90;2.70;;;;;;;;;;5070464;28;20271;-55
2023/07/11 02:04:48;;;;;;;3.07;2.60;;;;;;;;;;5070256;28;20305;-55
2023/07/11 02:07:14;;;;;;;4.33;2.67;;;;;;;;;;5070142;28;20195;-55
2023/07/11 02:09:40;;;;;;;5.70;3.13;;;;;;;;;;5070245;28;20201;-55
2023/07/11 02:12:07;;;;;;;4.10;2.57;;;;;;;;;;5070220;28;20190;-55
2023/07/11 02:14:40;;;;;;;5.13;2.50;;;;;;;;;;5070557;28;20201;-54
2023/07/11 02:17:07;;;;;;;4.27;2.30;;;;;;;;;;5073556;28;20683;-55
2023/07/11 02:19:33;;;;;;;3.60;2.83;;;;;;;;;;5073604;28;20253;-55
2023/07/11 02:22:00;;;;;;;2.70;2.13;;;;;;;;;;5073580;28;20668;-55
2023/07/11 02:24:26;;;;;;;5.10;2.93;;;;;;;;;;5073477;28;20205;-54
2023/07/11 02:26:52;;;;;;;2.87;2.50;;;;;;;;;;5073773;28;20219;-54
2023/07/11 02:29:19;;;;;;;4.67;2.67;;;;;;;;;;5073576;28;20217;-55
2023/07/11 02:31:46;;;;;;;4.80;2.80;;;;;;;;;;5073508;28;20205;-54
2023/07/11 02:34:12;;;;;;;6.37;2.77;;;;;;;;;;5073216;28;20688;-54
2023/07/11 02:36:38;;;;;;;2.83;2.47;;;;;;;;;;5073535;28;20234;-54
2023/07/11 02:39:04;;;;;;;4.27;2.70;;;;;;;;;;5073176;28;20226;-55
2023/07/11 02:41:30;;;;;;;3.33;2.30;;;;;;;;;;5073303;28;20553;-54
2023/07/11 02:43:57;;;;;;;4.90;2.90;;;;;;;;;;5073043;28;20233;-56
2023/07/11 02:46:24;;;;;;;7.13;2.97;;;;;;;;;;5073316;28;20209;-56
2023/07/11 02:48:51;;;;;;;3.87;2.60;;;;;;;;;;5073213;28;20203;-54
2023/07/11 02:51:17;;;;;;;5.17;2.90;;;;;;;;;;5073354;28;20193;-53
2023/07/11 02:53:43;;;;;;;5.80;2.90;;;;;;;;;;5073093;28;20202;-54
2023/07/11 02:56:09;;;;;;;3.47;2.77;;;;;;;;;;5072920;28;20197;-54
2023/07/11 02:58:35;;;;;;;6.97;2.77;;;;;;;;;;5072921;28;20229;-54
2023/07/11 03:01:03;;;;;;;3.63;2.50;;;;;;;;;;5072909;28;20196;-54
2023/07/11 03:03:29;;;;;;;3.57;2.60;;;;;;;;;;5072997;28;20232;-54
2023/07/11 03:05:56;;;;;;;6.23;2.83;;;;;;;;;;5072722;28;20251;-55
2023/07/11 03:08:23;;;;;;;4.63;2.87;;;;;;;;;;5072680;28;20212;-55
2023/07/11 03:10:49;;;;;;;4.50;2.60;;;;;;;;;;5072746;28;20196;-55
2023/07/11 03:13:15;;;;;;;5.10;2.90;;;;;;;;;;5072394;28;20208;-55
2023/07/11 03:15:41;;;;;;;6.67;2.70;;;;;;;;;;5072622;28;20239;-56
2023/07/11 03:18:08;;;;;;;5.53;3.00;;;;;;;;;;5072144;28;20273;-55
2023/07/11 03:20:35;;;;;;;6.17;2.60;;;;;;;;;;5071593;28;20238;-55
2023/07/11 03:23:03;;;;;;;6.53;3.20;;;;;;;;;;5071936;28;20225;-55
2023/07/11 03:25:29;;;;;;;5.87;2.60;;;;;;;;;;5072079;28;20656;-55
2023/07/11 03:27:55;;;;;;;6.53;3.00;;;;;;;;;;5072271;28;20296;-55
2023/07/11 03:30:21;;;;;;;6.77;2.70;;;;;;;;;;5072150;28;20203;-55
2023/07/11 03:32:47;;;;;;;4.97;2.70;;;;;;;;;;5072159;28;20239;-55
2023/07/11 03:35:12;;;;;;;5.33;2.87;;;;;;;;;;5072327;28;20192;-54
2023/07/11 03:37:38;;;;;;;7.47;2.80;;;;;;;;;;5072115;28;20658;-55
2023/07/11 03:40:07;;;;;;;3.60;2.90;;;;;;;;;;5072242;28;20198;-55
2023/07/11 03:42:33;;;;;;;4.47;2.67;;;;;;;;;;5071936;28;20229;-54
2023/07/11 03:44:59;;;;;;;5.43;2.93;;;;;;;;;;5072043;28;20194;-56
2023/07/11 03:47:25;;;;;;;3.27;2.97;;;;;;;;;;5071890;28;20239;-54
2023/07/11 03:49:51;;;;;;;7.63;3.10;;;;;;;;;;5071884;28;20242;-54
2023/07/11 03:52:17;;;;;;;4.27;3.00;;;;;;;;;;5071710;28;20683;-54
2023/07/11 03:54:43;;;;;;;3.97;2.70;;;;;;;;;;5071917;28;20191;-54
2023/07/11 03:57:10;;;;;;;3.77;2.50;;;;;;;;;;5071910;28;20735;-54
2023/07/11 03:59:36;;;;;;;4.90;3.03;;;;;;;;;;5071604;28;20219;-54
2023/07/11 04:02:02;;;;;;;6.67;2.73;;;;;;;;;;5071663;28;20213;-55
2023/07/11 04:04:28;;;;;;;4.23;3.17;;;;;;;;;;5071597;28;20203;-54
2023/07/11 04:06:54;;;;;;;6.90;2.83;;;;;;;;;;5071690;28;20627;-54
2023/07/11 04:09:20;;;;;;;4.33;3.10;;;;;;;;;;5071445;28;20203;-55
2023/07/11 04:11:46;;;;;;;4.53;2.83;;;;;;;;;;5071553;28;20203;-54
2023/07/11 04:14:13;;;;;;;6.77;3.07;;;;;;;;;;5071233;28;20286;-55
2023/07/11 04:16:39;;;;;;;4.80;2.57;;;;;;;;;;5071431;28;20569;-54
2023/07/11 04:19:06;;;;;;;4.47;2.43;;;;;;;;;;5071250;28;20238;-55
2023/07/11 04:21:32;;;;;;;5.97;3.10;;;;;;;;;;5071309;28;20207;-55
2023/07/11 04:23:58;;;;;;;5.73;3.07;;;;;;;;;;5071470;28;20204;-55
2023/07/11 04:26:24;;;;;;;5.00;3.03;;;;;;;;;;5071219;28;20207;-59
2023/07/11 04:28:50;;;;;;;3.47;2.60;;;;;;;;;;5071234;28;20196;-56
2023/07/11 04:31:17;;;;;;;3.50;2.45;;;;;;;;;;5071154;28;20569;-55
2023/07/11 04:33:43;;;;;;;6.13;2.93;;;;;;;;;;5071179;28;20208;-55
2023/07/11 04:36:10;;;;;;;4.17;2.70;;;;;;;;;;5071079;28;20208;-55
2023/07/11 04:38:37;;;;;;;5.40;2.87;;;;;;;;;;5070484;28;20316;-54
2023/07/11 04:41:03;;;;;;;4.07;2.80;;;;;;;;;;5070971;28;20210;-55
2023/07/11 04:43:29;;;;;;;3.93;2.80;;;;;;;;;;5070917;28;20230;-56
2023/07/11 04:45:55;;;;;;;6.00;2.63;;;;;;;;;;5070878;28;20207;-58
2023/07/11 04:48:23;;;;;;;4.80;2.63;;;;;;;;;;5070904;28;20206;-53
2023/07/11 04:50:49;;;;;;;4.07;3.00;;;;;;;;;;5071035;28;20195;-55
2023/07/11 04:53:16;;;;;;;7.13;2.97;;;;;;;;;;5070846;28;20205;-53
2023/07/11 04:55:42;;;;;;;5.27;2.70;;;;;;;;;;5070989;28;20262;-54
2023/07/11 04:58:08;;;;;;;4.00;2.53;;;;;;;;;;5070665;28;20694;-55
2023/07/11 05:00:34;;;;;;;4.83;2.90;;;;;;;;;;5071151;28;20245;-55
2023/07/11 05:02:59;;;;;;;3.87;2.70;;;;;;;;;;5071094;28;20199;-54
2023/07/11 05:05:27;;;;;;;7.20;2.70;;;;;;;;;;5070698;28;20224;-55
2023/07/11 05:07:53;;;;;;;8.33;3.20;;;;;;;;;;5070964;28;20204;-54
2023/07/11 05:10:19;;;;;;;6.50;3.30;;;;;;;;;;5070855;28;20664;-55
2023/07/11 05:12:45;;;;;;;5.17;2.87;;;;;;;;;;5070843;28;20201;-54
2023/07/11 05:15:12;;;;;;;4.80;2.50;;;;;;;;;;5070679;28;20556;-55
2023/07/11 05:17:38;;;;;;;7.00;2.40;;;;;;;;;;5070938;28;20602;-55
2023/07/11 05:20:04;;;;;;;6.10;2.70;;;;;;;;;;5070496;28;20224;-54
2023/07/11 05:22:31;;;;;;;4.93;2.47;;;;;;;;;;5070730;28;20260;-54
2023/07/11 05:24:57;;;;;;;6.03;2.70;;;;;;;;;;5070713;28;20199;-55
2023/07/11 05:27:25;;;;;;;6.17;2.40;;;;;;;;;;5070488;28;20199;-55
2023/07/11 05:29:51;;;;;;;7.57;3.47;;;;;;;;;;5070473;28;20204;-55
2023/07/11 05:32:17;;;;;;;4.30;2.53;;;;;;;;;;5070444;28;20197;-55
2023/07/11 05:34:43;;;;;;;5.50;2.63;;;;;;;;;;5070534;28;20720;-55
2023/07/11 05:37:09;;;;;;;4.47;2.67;;;;;;;;;;5069112;28;20294;-55
2023/07/11 05:39:36;;;;;;;3.60;2.20;;;;;;;;;;5070536;28;20225;-55
2023/07/11 05:42:03;;;;;;;5.20;2.77;;;;;;;;;;5070194;28;20214;-54
2023/07/11 05:44:29;;;;;;;7.10;2.77;;;;;;;;;;5070470;28;20305;-56
2023/07/11 05:46:55;;;;;;;4.20;2.50;;;;;;;;;;5070174;28;20597;-55
2023/07/11 05:49:21;;;;;;;5.83;2.60;;;;;;;;;;5071906;28;20209;-55
2023/07/11 05:51:47;;;;;;;6.83;2.67;;;;;;;;;;5074173;28;20203;-55
2023/07/11 05:54:13;;;;;;;5.07;2.30;;;;;;;;;;5074011;28;20203;-55
2023/07/11 05:56:40;;;;;;;4.57;2.50;;;;;;;;;;5073998;28;20649;-56
2023/07/11 05:59:06;;;;;;;6.57;2.47;;;;;;;;;;5074050;28;20250;-55
2023/07/11 06:01:33;;;;;;;3.27;2.10;;;;;;;;;;5073955;28;20234;-55
2023/07/11 06:04:03;;;;;;;5.63;2.40;;;;;;;;;;5073910;28;20539;-55
2023/07/11 06:06:29;;;;;;;4.23;2.43;;;;;;;;;;5074194;28;20223;-55
2023/07/11 06:08:55;;;;;;;6.33;2.20;;;;;;;;;;5073795;28;20260;-55
2023/07/11 06:11:21;;;;;;;4.87;2.17;;;;;;;;;;5073713;28;20223;-55
2023/07/11 06:13:49;;;;;;;5.07;2.50;;;;;;;;;;5073637;28;20238;-55
2023/07/11 06:16:16;;;;;;;3.00;2.20;;;;;;;;;;5073696;28;20206;-55
2023/07/11 06:18:42;;;;;;;3.50;2.30;;;;;;;;;;5073526;28;20228;-55
2023/07/11 06:21:09;;;;;;;7.03;2.10;;;;;;;;;;5073492;28;20207;-55
2023/07/11 06:23:36;;;;;;;5.53;2.50;;;;;;;;;;5073406;28;20222;-55
2023/07/11 06:26:03;;;;;;;2.67;1.90;;;;;;;;;;5073267;28;20264;-55
2023/07/11 06:28:30;;;;;;;4.53;2.10;;;;;;;;;;5073384;28;20661;-55
2023/07/11 06:30:58;;;;;;;4.03;1.90;;;;;;;;;;5073412;28;20202;-55
2023/07/11 06:33:24;;;;;;;3.00;2.13;;;;;;;;;;5073147;28;20222;-56
2023/07/11 06:35:51;;;;;;;5.57;2.20;;;;;;;;;;5073352;28;20299;-56
2023/07/11 06:38:17;;;;;;;5.27;2.03;;;;;;;;;;5073134;28;20550;-56
2023/07/11 06:40:47;;;;;;;7.43;2.53;;;;;;;;;;5073268;28;20196;-57
2023/07/11 06:43:13;;;;;;;5.97;2.03;;;;;;;;;;5072994;28;20643;-55
2023/07/11 06:45:39;;;;;;;3.70;2.00;;;;;;;;;;5073077;28;20218;-55
2023/07/11 06:48:07;;;;;;;3.23;2.10;;;;;;;;;;5073066;28;20662;-55
2023/07/11 06:50:32;;;;;;;5.27;2.17;;;;;;;;;;5073123;28;20202;-55
2023/07/11 06:52:58;;;;;;;5.83;2.20;;;;;;;;;;5073245;28;20557;-56
2023/07/11 06:55:25;;;;;;;5.37;2.07;;;;;;;;;;5073172;28;20242;-55
2023/07/11 06:57:51;;;;;;;4.50;2.17;;;;;;;;;;5072866;28;20211;-56
2023/07/11 07:00:18;;;;;;;4.33;2.33;;;;;;;;;;5072159;28;20586;-55
2023/07/11 07:02:44;;;;;;;5.10;2.40;;;;;;;;;;5072801;28;20742;-55
2023/07/11 07:05:12;;;;;;;5.67;2.47;;;;;;;;;;5072634;28;20579;-56
2023/07/11 07:07:38;;;;;;;5.30;2.40;;;;;;;;;;5072854;28;20200;-55
2023/07/11 07:10:04;;;;;;;2.53;1.80;;;;;;;;;;5072652;28;20211;-55
2023/07/11 07:12:30;;;;;;;5.73;2.50;;;;;;;;;;5072689;28;20204;-55
2023/07/11 07:14:56;;;;;;;6.77;1.90;;;;;;;;;;5072662;28;20210;-55
2023/07/11 07:17:22;;;;;;;4.57;2.10;;;;;;;;;;5072419;28;20187;-53
2023/07/11 07:19:48;;;;;;;5.93;2.30;;;;;;;;;;5072400;28;20325;-53
2023/07/11 07:22:15;;;;;;;3.30;2.13;;;;;;;;;;5072514;28;20207;-53
2023/07/11 07:24:41;;;;;;;5.77;1.90;;;;;;;;;;5072446;28;20200;-53
2023/07/11 07:27:07;;;;;;;4.73;2.40;;;;;;;;;;5072328;28;20199;-53
2023/07/11 07:29:33;;;;;;;3.60;1.93;;;;;;;;;;5072378;28;20224;-51
2023/07/11 07:32:00;;;;;;;4.00;2.10;;;;;;;;;;5072219;28;20231;-52
2023/07/11 07:34:26;;;;;;;7.60;2.57;;;;;;;;;;5072089;28;20560;-52
2023/07/11 07:36:52;;;;;;;3.40;2.07;;;;;;;;;;5072243;28;20283;-52
2023/07/11 07:39:19;;;;;;;4.07;2.50;;;;;;;;;;5071953;28;20224;-55
2023/07/11 07:41:45;;;;;;;3.27;2.10;;;;;;;;;;5072058;28;20214;-54
2023/07/11 07:44:12;;;;;;;6.77;2.00;;;;;;;;;;5071874;28;20243;-54
2023/07/11 07:46:38;;;;;;;4.70;2.30;;;;;;;;;;5072178;28;20733;-54
2023/07/11 07:49:04;;;;;;;3.13;2.10;;;;;;;;;;5071895;28;20196;-54
2023/07/11 07:51:30;;;;;;;6.27;2.30;;;;;;;;;;5071902;28;20201;-55
2023/07/11 07:53:56;;;;;;;6.60;2.50;;;;;;;;;;5071786;28;20270;-54
2023/07/11 07:56:24;;;;;;;4.03;2.37;;;;;;;;;;5071683;28;20205;-54
2023/07/11 07:58:50;;;;;;;6.80;2.30;;;;;;;;;;5071500;28;20367;-55
2023/07/11 08:01:17;;;;;;;3.23;1.90;;;;;;;;;;5071572;28;20202;-55
2023/07/11 08:03:44;;;;;;;4.97;2.00;;;;;;;;;;5071661;28;20202;-55
2023/07/11 08:06:10;;;;;;;4.90;2.30;;;;;;;;;;5071369;28;20221;-55
2023/07/11 08:08:36;;;;;;;2.83;1.77;;;;;;;;;;5071405;28;20199;-56
2023/07/11 08:11:04;;;;;;;4.70;2.00;;;;;;;;;;5070172;28;20262;-55
2023/07/11 08:13:31;;;;;;;7.73;2.13;;;;;;;;;;5070444;28;20248;-55
2023/07/11 08:15:57;;;;;;;3.50;2.40;;;;;;;;;;5071298;28;20222;-54
2023/07/11 08:18:23;;;;;;;7.67;2.53;;;;;;;;;;5071357;28;20779;-50
2023/07/11 08:20:49;;;;;;;4.83;2.20;;;;;;;;;;5071642;28;20664;-50
2023/07/11 08:23:15;;;;;;;5.00;2.37;;;;;;;;;;5071456;28;20204;-54
2023/07/11 08:25:41;;;;;;;4.83;2.40;;;;;;;;;;5071550;28;20295;-50
2023/07/11 08:28:07;;;;;;;4.30;2.00;;;;;;;;;;5071399;28;20721;-52
2023/07/11 08:30:35;;;;;;;4.17;2.30;;;;;;;;;;5071240;28;20198;-53
2023/07/11 08:33:02;;;;;;;2.83;2.10;;;;;;;;;;5071571;28;20549;-52
2023/07/11 08:35:28;;;;;;;4.00;1.90;;;;;;;;;;5071380;28;20202;-57
2023/07/11 08:37:55;;;;;;;3.10;2.30;;;;;;;;;;5071285;28;20200;-53
2023/07/11 08:40:22;;;;;;;2.63;2.10;;;;;;;;;;5071113;28;20227;-53
2023/07/11 08:42:48;;;;;;;2.57;1.90;;;;;;;;;;5069051;28;20231;-52
2023/07/11 08:45:17;;;;;;;4.03;2.20;;;;;;;;;;5070611;28;20233;-52
2023/07/11 08:47:48;;;;;;;7.63;2.10;;;;;;;;;;5070732;28;20219;-53
2023/07/11 08:50:16;;;;;;;2.30;2.07;;;;;;;;;;5070613;28;20252;-53
2023/07/11 08:52:43;;;;;;;3.63;2.33;;;;;;;;;;5070586;28;20666;-52
2023/07/11 08:55:12;;;;;;;4.70;2.40;;;;;;;;;;5070873;28;20577;-52
2023/07/11 08:57:42;;;;;;;2.33;2.03;;;;;;;;;;5070551;28;20636;-51
2023/07/11 09:00:12;;;;;;;5.43;2.30;;;;;;;;;;5070492;28;20231;-53
2023/07/11 09:02:40;;;;;;;3.03;2.40;;;;;;;;;;5070822;28;20206;-52
2023/07/11 09:05:11;;;;;;;3.90;2.30;;;;;;;;;;5070705;28;20310;-53
2023/07/11 09:07:38;;;;;;;3.33;2.07;;;;;;;;;;5070620;28;20212;-51
2023/07/11 09:10:16;;;;;;;3.67;2.20;;;;;;;;;;5070816;28;20197;-53
2023/07/11 09:12:45;;;;;;;3.37;2.40;;;;;;;;;;5070484;28;20561;-53
2023/07/11 09:15:17;;;;;;;4.03;2.27;;;;;;;;;;5070625;28;20196;-52
2023/07/11 09:17:51;;;;;;;2.90;2.20;;;;;;;;;;5069288;28;20553;-53
2023/07/11 09:20:22;;;;;;;4.17;2.40;;;;;;;;;;5070365;28;20230;-53
2023/07/11 09:22:51;;;;;;;2.77;2.10;;;;;;;;;;5070456;28;20205;-53
2023/07/11 09:25:19;;;;;;;3.67;2.17;;;;;;;;;;5072301;28;20197;-53
2023/07/11 09:27:48;;;;;;;4.17;2.50;;;;;;;;;;5074663;28;20202;-50
2023/07/11 09:30:16;;;;;;;3.13;2.37;;;;;;;;;;5074260;28;20504;-49
2023/07/11 09:32:42;;;;;;;5.20;2.37;;;;;;;;;;5074371;28;20204;-54
2023/07/11 09:35:21;;;;;;;3.77;2.30;;;;;;;;;;5074461;28;20542;-52
2023/07/11 09:37:50;;;;;;;2.93;2.40;;;;;;;;;;5074863;28;20221;-53
2023/07/11 09:40:19;;;;;;;4.97;2.60;;;;;;;;;;5074675;28;20712;-53
2023/07/11 09:42:48;;;;;;;3.50;2.50;;;;;;;;;;5074443;28;20240;-53
2023/07/11 09:45:15;;;;;;;3.77;2.47;;;;;;;;;;5074559;28;20218;-54
2023/07/11 09:47:41;;;;;;;2.30;2.10;;;;;;;;;;5074552;28;20613;-54
2023/07/11 09:50:23;;;;;;;3.00;2.43;;;;;;;;;;5074563;28;20206;-54
2023/07/11 09:52:51;;;;;;;4.90;2.40;;;;;;;;;;5074496;28;20206;-53
2023/07/11 09:55:24;;;;;;;4.73;2.30;;;;;;;;;;5074394;28;20230;-54
2023/07/11 09:57:50;;;;;;;3.23;2.40;;;;;;;;;;5074506;28;20199;-53
2023/07/11 10:00:17;;;;;;;2.83;2.40;;;;;;;;;;5074184;28;20225;-54
2023/07/11 10:02:45;;;;;;;3.20;2.77;;;;;;;;;;5074227;28;20199;-54
2023/07/11 10:05:14;;;;;;;4.07;2.23;;;;;;;;;;5074155;28;20223;-55
2023/07/11 10:07:39;;;;;;;3.63;2.53;;;;;;;;;;5074311;28;20205;-54
2023/07/11 10:10:13;;;;;;;5.53;2.30;;;;;;;;;;5072776;28;20562;-54
2023/07/11 10:12:42;;;;;;;2.57;2.33;;;;;;;;;;5074152;28;20207;-54
2023/07/11 10:15:14;;;;;;;3.43;2.50;;;;;;;;;;5073959;28;20202;-53
2023/07/11 10:17:41;;;;;;;2.47;2.20;;;;;;;;;;5074127;28;20198;-53
2023/07/11 10:20:12;;;;;;;3.37;2.40;;;;;;;;;;5073850;28;20231;-54
2023/07/11 10:22:39;;;;;;;4.23;2.10;;;;;;;;;;5073943;28;20207;-53
2023/07/11 10:25:15;;;;;;;4.60;2.10;;;;;;;;;;5074034;28;20249;-53
2023/07/11 10:27:42;;;;;;;2.37;2.03;;;;;;;;;;5073824;28;20322;-54
2023/07/11 10:30:12;;;;;;;4.17;2.30;;;;;;;;;;5073866;28;20202;-54
2023/07/11 10:32:40;;;;;;;4.00;2.30;;;;;;;;;;5073936;28;20234;-54
2023/07/11 10:35:10;;;;;;;4.43;2.43;;;;;;;;;;5072819;28;20712;-54
2023/07/11 10:37:41;;;;;;;2.60;2.40;;;;;;;;;;5073498;28;20642;-54
2023/07/11 10:40:12;;;;;;;3.13;2.33;;;;;;;;;;5073547;28;20230;-53
2023/07/11 10:42:40;;;;;;;3.13;2.50;;;;;;;;;;5073365;28;20245;-53
2023/07/11 10:45:12;;;;;;;2.97;2.67;;;;;;;;;;5073807;28;20223;-54
2023/07/11 10:47:39;;;;;;;3.83;2.77;;;;;;;;;;5073528;28;20192;-54
2023/07/11 10:50:17;;;;;;;3.60;2.50;;;;;;;;;;5073407;28;20192;-54
2023/07/11 10:52:45;;;;;;;2.87;2.57;;;;;;;;;;5073464;28;20196;-55
2023/07/11 10:55:15;;;;;;;3.77;2.70;;;;;;;;;;5073395;28;20704;-54
2023/07/11 10:57:44;;;;;;;4.27;2.93;;;;;;;;;;5073296;28;20281;-53
2023/07/11 11:00:16;;;;;;;4.10;2.57;;;;;;;;;;5073050;28;20283;-54
2023/07/11 11:02:47;;;;;;;4.67;2.97;;;;;;;;;;5073225;28;20614;-55
2023/07/11 11:05:20;;;;;;;4.43;3.00;;;;;;;;;;5073071;28;20863;-54
2023/07/11 11:07:47;;;;;;;3.80;2.57;;;;;;;;;;5073203;28;20194;-53
2023/07/11 11:10:20;;;;;;;4.10;3.03;;;;;;;;;;5072971;28;20550;-54
2023/07/11 11:12:48;;;;;;;2.90;2.57;;;;;;;;;;5073011;28;20199;-54
2023/07/11 11:15:22;;;;;;;3.80;2.70;;;;;;;;;;5072928;28;20201;-53
2023/07/11 11:17:56;;;;;;;3.80;2.80;;;;;;;;;;5072942;28;20203;-54
2023/07/11 11:20:24;;;;;;;4.83;3.00;;;;;;;;;;5072640;28;20884;-53
2023/07/11 11:22:56;;;;;;;3.20;2.60;;;;;;;;;;5072876;28;20197;-53
2023/07/11 11:25:26;;;;;;;4.80;3.03;;;;;;;;;;5072746;28;20282;-52
2023/07/11 11:27:56;;;;;;;4.13;3.00;;;;;;;;;;5060249;28;20211;-52
2023/07/11 11:30:29;;;;;;;4.50;2.90;;;;;;;;;;5072324;28;20191;-53
2023/07/11 11:33:00;;;;;;;3.83;2.60;;;;;;;;;;5072073;28;20201;-53
2023/07/11 11:35:32;;;;;;;3.63;2.80;;;;;;;;;;5072390;28;20205;-52
2023/07/11 11:38:04;;;;;;;7.43;3.23;;;;;;;;;;5072466;28;20602;-53
2023/07/11 11:40:34;;;;;;;4.47;2.80;;;;;;;;;;5072123;28;20254;-54
2023/07/11 11:43:03;;;;;;;4.60;3.13;;;;;;;;;;5071937;28;20599;-53
2023/07/11 11:45:29;;;;;;;4.27;2.90;;;;;;;;;;5071457;28;20203;-54
2023/07/11 11:47:56;;;;;;;4.10;3.00;;;;;;;;;;5072029;28;20283;-53
2023/07/11 11:50:23;;;;;;;4.50;3.00;;;;;;;;;;5071986;28;20188;-53
2023/07/11 11:52:54;;;;;;;4.23;3.27;;;;;;;;;;5072182;28;20195;-53
2023/07/11 11:55:25;;;;;;;3.83;2.90;;;;;;;;;;5064659;28;20207;-53
2023/07/11 11:57:53;;;;;;;4.77;2.87;;;;;;;;;;5051625;28;20249;-53
2023/07/11 12:00:35;;;;;;;3.47;2.90;;;;;;;;;;5051647;28;20569;-53
2023/07/11 12:03:01;;;;;;;5.03;3.30;;;;;;;;;;5052012;28;20204;-53
2023/07/11 12:05:27;;;;;;;4.87;3.67;;;;;;;;;;5051883;28;20222;-54
2023/07/11 12:08:08;;;;;;;4.20;3.40;;;;;;;;;;5052090;28;20208;-53
2023/07/11 12:10:35;;;;;;;3.63;3.10;;;;;;;;;;5051082;28;20192;-54
2023/07/11 12:13:19;;;;;;;5.07;3.40;;;;;;;;;;5051834;28;20199;-53
2023/07/11 12:15:54;;;;;;;4.00;3.03;;;;;;;;;;5051922;28;20204;-53
2023/07/11 12:18:45;;;;;;;4.83;3.00;;;;;;;;;;5051658;28;20220;-53
2023/07/11 12:21:22;;;;;;;4.57;3.03;;;;;;;;;;5041663;28;20226;-53
2023/07/11 12:23:50;;;;;;;3.47;3.17;;;;;;;;;;5051504;28;20192;-54
2023/07/11 12:26:17;;;;;;;3.97;3.40;;;;;;;;;;5051188;28;20200;-53
2023/07/11 12:28:44;;;;;;;5.47;3.33;;;;;;;;;;5051260;28;20692;-54
2023/07/11 12:31:17;;;;;;;3.57;3.03;;;;;;;;;;5051035;28;20209;-53
2023/07/11 12:33:43;;;;;;;6.43;3.40;;;;;;;;;;5051205;28;20200;-54
2023/07/11 12:36:42;;;;;;;3.93;3.03;;;;;;;;;;5051108;28;20219;-54
2023/07/11 12:39:15;;;;;;;3.53;3.23;;;;;;;;;;5051259;28;20228;-54
2023/07/11 12:41:45;;;;;;;5.40;3.73;;;;;;;;;;5051206;28;20232;-54
2023/07/11 12:44:13;;;;;;;3.67;3.37;;;;;;;;;;5050972;28;20296;-53
2023/07/11 12:46:42;;;;;;;5.07;3.40;;;;;;;;;;5050756;28;20209;-53
2023/07/11 12:49:13;;;;;;;4.30;3.20;;;;;;;;;;5051009;28;20189;-53
2023/07/11 12:51:39;;;;;;;4.60;3.60;;;;;;;;;;5057337;28;20281;-54
2023/07/11 12:54:13;;;;;;;4.23;3.17;;;;;;;;;;5070886;28;20612;-54
2023/07/11 12:56:41;;;;;;;4.03;3.07;;;;;;;;;;5071293;28;20209;-54
2023/07/11 12:59:18;;;;;;;3.90;3.37;;;;;;;;;;5070093;28;20291;-54
2023/07/11 13:01:45;;;;;;;4.07;3.23;;;;;;;;;;5071289;28;20198;-54
2023/07/11 13:04:13;;;;;;;3.50;3.20;;;;;;;;;;5070912;28;20278;-54
2023/07/11 13:06:44;;;;;;;3.07;2.83;;;;;;;;;;5071025;28;20222;-53
2023/07/11 13:09:10;;;;;;;4.57;3.10;;;;;;;;;;5071037;28;20202;-54
2023/07/11 13:11:36;;;;;;;9.27;3.13;;;;;;;;;;5070298;28;20628;-54
2023/07/11 13:14:09;;;;;;;3.47;3.10;;;;;;;;;;5070996;28;20220;-54
2023/07/11 13:16:38;;;;;;;4.77;3.40;;;;;;;;;;5070829;28;20206;-53
2023/07/11 13:19:06;;;;;;;4.60;3.50;;;;;;;;;;5070906;28;20261;-54
2023/07/11 13:21:32;;;;;;;3.37;2.87;;;;;;;;;;5070925;28;20210;-54
2023/07/11 13:24:00;;;;;;;3.37;2.80;;;;;;;;;;5070569;28;20237;-53
2023/07/11 13:26:29;;;;;;;3.80;3.10;;;;;;;;;;5070557;28;20197;-53
2023/07/11 13:28:58;;;;;;;4.83;3.50;;;;;;;;;;5070974;28;20217;-54
2023/07/11 13:31:25;;;;;;;4.20;3.00;;;;;;;;;;5070610;28;20194;-53
2023/07/11 13:33:59;;;;;;;4.40;3.57;;;;;;;;;;5070477;28;20198;-53
2023/07/11 13:36:28;;;;;;;3.23;2.93;;;;;;;;;;5068054;28;20251;-51
2023/07/11 13:38:56;;;;;;;4.63;3.73;;;;;;;;;;5069112;28;20223;-52
2023/07/11 13:41:26;;;;;;;4.30;3.57;;;;;;;;;;5070538;28;20223;-52
2023/07/11 13:43:56;;;;;;;5.20;3.43;;;;;;;;;;5070850;28;20289;-54
2023/07/11 13:46:23;;;;;;;3.70;3.30;;;;;;;;;;5070699;28;20667;-53
2023/07/11 13:48:49;;;;;;;4.47;3.63;;;;;;;;;;5070760;28;20281;-53
2023/07/11 13:51:16;;;;;;;4.40;3.07;;;;;;;;;;5070628;28;20194;-54
2023/07/11 13:53:46;;;;;;;3.77;3.00;;;;;;;;;;5070732;28;20211;-54
2023/07/11 13:56:14;;;;;;;4.47;3.40;;;;;;;;;;5070614;28;20199;-54
2023/07/11 13:58:40;;;;;;;3.70;3.20;;;;;;;;;;5070815;28;20198;-54
2023/07/11 14:01:10;;;;;;;5.10;3.23;;;;;;;;;;5070655;28;20209;-53
2023/07/11 14:03:36;;;;;;;4.20;3.20;;;;;;;;;;5070653;28;20188;-54
2023/07/11 14:06:03;;;;;;;3.77;3.30;;;;;;;;;;5070445;28;20223;-53
2023/07/11 14:08:29;;;;;;;5.03;3.70;;;;;;;;;;5070410;28;20676;-53
2023/07/11 14:10:56;;;;;;;3.90;3.50;;;;;;;;;;5072990;28;20201;-53
2023/07/11 14:13:23;;;;;;;3.83;3.37;;;;;;;;;;5073939;28;20297;-54
2023/07/11 14:15:51;;;;;;;4.00;3.57;;;;;;;;;;5074238;28;20202;-53
2023/07/11 14:18:17;;;;;;;4.97;3.73;;;;;;;;;;5073721;28;20205;-54
2023/07/11 14:20:43;;;;;;;4.93;3.47;;;;;;;;;;5073770;28;20222;-54
2023/07/11 14:23:12;;;;;;;3.83;3.27;;;;;;;;;;5074043;28;20573;-54
2023/07/11 14:25:38;;;;;;;4.10;3.53;;;;;;;;;;5073890;28;20538;-54
2023/07/11 14:28:05;;;;;;;5.03;3.80;;;;;;;;;;5073954;28;20214;-54
2023/07/11 14:30:31;;;;;;;5.97;3.77;;;;;;;;;;5073804;28;20192;-53
2023/07/11 14:32:57;;;;;;;4.23;3.50;;;;;;;;;;5073983;28;20275;-53
2023/07/11 14:35:24;;;;;;;6.67;3.60;;;;;;;;;;5073814;28;20208;-53
2023/07/11 14:37:50;;;;;;;4.57;3.20;;;;;;;;;;5073748;28;20206;-54
2023/07/11 14:40:17;;;;;;;4.67;3.60;;;;;;;;;;5073328;28;20216;-54
2023/07/11 14:42:43;;;;;;;4.87;3.57;;;;;;;;;;5073516;28;20286;-54
2023/07/11 14:45:14;;;;;;;3.70;3.40;;;;;;;;;;5073679;28;20283;-53